Tiempo atmosférico en la estación meteorológica de Aguilar De Campoo, Palencia (910 m.)



Fecha
DESCASC
Temp. máxima en grados centígrados (hora)
DESCASC
Temp. mínima en grados centígrados (hora)
DESCASC
Temp. media en grados centígrados
DESCASC
Racha de viento máxima en m/sg (hora)
DESCASC
Velocidad máxima media en intervalos de 10 minutos(hora)
DESCASC
Precipitaciones diarias en mm
DESCASC
Precipitaciones de 00:00 a 06:00 en mm
DESCASC
Precipitaciones de 06:00 a 12:00 en mm
DESCASC
Precipitaciones de 12:00 a 18:00 en mm
DESCASC
Precipitaciones de 18:00 a 24:00 en mm
DESCASC
16-06-2019 26.1 (17:20) 3.4 (06:50) 14.8 8.61 (20:50) 5 (21:00) 0 0 0 0 0
15-06-2019 21.1 (17:30) 7.8 (07:10) 14.5 10.83 (20:20) 6.11 (20:00) 0 0 0 0 0
14-06-2019 20.6 (14:30) 3.3 (05:40) 12 11.94 (17:30) 7.22 (17:40) 0 0 0 0 0
13-06-2019 22.7 (17:40) 5.8 (00:00) 14.3 12.5 (19:20) 7.22 (20:00) 0 0 0 0 0
12-06-2019 16.3 (14:40) -0.7 (-00:0) 7.8 9.17 (19:50) 5.28 (20:20) 0 0 0 0 0
11-06-2019 16.1 (15:50) 4 (00:00) 10.1 9.17 (18:30) 4.17 (18:30) 0.6 0.6 0 0 0
10-06-2019 13.9 (15:00) 6.2 (00:00) 10 8.61 (16:40) 4.72 (15:30) 1.8 0 0 0 1.8
09-06-2019 15.7 (14:30) 8 (00:00) 11.8 11.11 (16:10) 6.11 (17:50) 0.6 0 0 0 0.6
08-06-2019 21.3 (17:10) 2.9 (00:00) 12.1 11.39 (19:00) 6.67 (19:10) 0 0 0 0 0
07-06-2019 17.2 (17:10) 5.8 (00:00) 11.5 13.61 (08:10) 7.22 (10:40) 0 0 0 0 0
06-06-2019 18.5 (17:40) 2.4 (00:00) 10.5 16.67 (17:30) 7.22 (18:50) 7.8 0 0 0 7.8
05-06-2019 12.8 (13:30) 6 (00:00) 9.4 10 (14:50) 6.11 (15:50) 11 5.4 2.6 1.8 1.2
04-06-2019 21.7 (16:40) 7.9 (00:00) 14.8 12.5 (19:40) 6.94 (18:40) 0.8 0 0 0 0.8
03-06-2019 27.7 (16:30) 8.1 (00:00) 17.9 9.72 (16:20) 5 (15:10) 0 0 0 0 0
02-06-2019 28.9 (16:10) 9.1 (00:00) 19 11.39 (20:30) 5 (14:10) 0 0 0 0 0
01-06-2019 31 (17:20) 6.5 (00:00) 18.8 8.33 (14:00) 4.17 (19:40) 0 0 0 0 0
31-05-2019 28.5 (16:10) 4.7 (00:00) 16.6 8.61 (18:50) 3.89 (20:00) 0 0 0 0 0
30-05-2019 25.5 (16:50) 3.4 (00:00) 14.5 10 (18:00) 5.83 (19:50) 0 0 0 0 0
29-05-2019 19.1 (17:20) 2.6 (00:00) 10.9 11.67 (15:30) 6.39 (15:30) 0 0 0 0 0
28-05-2019 15.9 (16:20) 4.6 (00:00) 10.2 12.78 (17:00) 6.94 (15:30) 0 0 0 0 0
27-05-2019 18.2 (16:20) 5.9 (00:00) 12.1 12.22 (19:00) 7.78 (19:00) 0 0 0 0 0
26-05-2019 17.9 (16:00) 4.4 (00:00) 11.1 12.22 (21:10) 6.94 (20:10) 0 0 0 0 0
25-05-2019 15.7 (16:10) 5.6 (00:00) 10.6 13.61 (14:20) 7.22 (12:20) 0 0 0 0 0
24-05-2019 15.5 (15:40) 4.9 (00:00) 10.2 12.22 (13:40) 6.11 (13:40) 0 0 0 0 0
23-05-2019 19.9 (13:40) 6.4 (00:00) 13.1 10.83 (16:00) 6.11 (16:00) 0 0 0 0 0
22-05-2019 24.2 (17:10) 2.6 (00:00) 13.4 11.11 (15:50) 5.56 (18:40) 0 0 0 0 0
21-05-2019 18.3 (17:00) 2.2 (06:40) 10.2 10 (18:10) 5.56 (18:30) 0 0 0 0 0

Gráficas

Temp. máximas Temp. mínimas Temp. medias Precipitaciones Rachas de viento máximas Velocidades máximas media en intervalos de 10 minutos

Datos horarios

Fecha y hora oficial Temperatura (ºC) Velocidad del viento (km/h) Dirección del viento Racha (km/h) Dirección de racha Precipitación (mm) Presión (hPa) Tendencia (hPa) Humedad (%)
2019-06-19 23:00:00 12.4 11 Sur 26 Sudeste 0 -- -- 90
2019-06-19 22:00:00 13.1 13 Sur 32 Sudeste 0 -- -- 88
2019-06-19 21:00:00 13.7 19 Sur 36 Sudeste 0 -- -- 85
2019-06-19 20:00:00 16.3 17 Sudeste 35 Sudeste 0 -- -- 75
2019-06-19 19:00:00 22.1 6 Noroeste 19 Noroeste 0 -- -- 44
2019-06-19 18:00:00 21.9 9 Noroeste 23 Noroeste 0 -- -- 46
2019-06-19 17:00:00 21.9 9 Norte 23 Norte 0 -- -- 50
2019-06-19 16:00:00 20.3 14 Norte 26 Noroeste 0 -- -- 55
2019-06-19 15:00:00 19.8 14 Noroeste 27 Norte 0 -- -- 55
2019-06-19 14:00:00 19.7 13 Norte 27 Norte 0 -- -- 57
2019-06-19 13:00:00 19.3 13 Norte -- -- -- -- -- 61
2019-06-19 12:00:00 18.4 17 Norte 29 Norte 0 -- -- 65
2019-06-19 11:00:00 17.6 12 Noroeste 31 Norte 0 -- -- 68
2019-06-19 10:00:00 16.6 14 Norte 31 Norte 0 -- -- 71
2019-06-19 09:00:00 15.6 14 Norte 24 Noroeste 0 -- -- 79
2019-06-19 08:00:00 14.6 9 Noroeste 21 Noroeste 0 -- -- 84
2019-06-19 07:00:00 14.6 10 Norte 19 Noroeste 0 -- -- 82
2019-06-19 06:00:00 14.3 10 Norte 17 Norte 0 -- -- 83
2019-06-19 05:00:00 14.2 8 Noroeste 15 Noroeste 0 -- -- 84
2019-06-19 04:00:00 14.1 5 Noroeste 16 Norte 0 -- -- 83
2019-06-19 03:00:00 15.1 11 Norte 24 Noroeste 0 -- -- 79
2019-06-19 02:00:00 15.1 5 Norte 21 Norte 0 -- -- 80
2019-06-19 01:00:00 15 4 Noroeste 14 Norte 0 -- -- 78
2019-06-19 00:00:00 16.4 10 Norte 26 Norte 0 -- -- 74
2019-06-18 23:00:00 17.8 10 Norte 28 Norte 0 -- -- 62
2019-06-18 22:00:00 19 13 Norte 35 Norte 0 -- -- 55
2019-06-18 21:00:00 20.9 20 Norte 46 Noroeste 0 -- -- 48
2019-06-18 20:00:00 22.3 16 Norte 38 Noroeste 0 -- -- 45
2019-06-18 19:00:00 24.1 15 Norte 50 Norte 0 -- -- 43
2019-06-18 18:00:00 25.5 19 Norte 49 Noroeste 0 -- -- 37
2019-06-18 17:00:00 26.5 19 Norte 47 Noroeste 0 -- -- 29
2019-06-18 16:00:00 26.3 21 Noroeste 58 Noroeste 0 -- -- 26
2019-06-18 15:00:00 25.7 26 Noroeste 58 Noroeste 0 -- -- 22
2019-06-18 14:00:00 25.1 19 Noroeste 48 Noroeste 0 -- -- 21
2019-06-18 13:00:00 23.9 22 Noroeste 45 Noroeste 0 -- -- 27
2019-06-18 12:00:00 23.2 10 Noroeste 35 Norte 0 -- -- 33
2019-06-18 11:00:00 22 15 Norte 37 Oeste 0 -- -- 38
2019-06-18 10:00:00 19.6 12 Oeste 22 Oeste 0 -- -- 41
2019-06-18 09:00:00 14.1 3 Este 14 Este 0 -- -- 64
2019-06-18 08:00:00 9.3 11 Este 14 Este 0 -- -- 74
2019-06-18 07:00:00 7.6 0 Calma 3 Este 0 -- -- 78
2019-06-18 06:00:00 9 0 Calma 15 Este 0 -- -- 73
2019-06-18 05:00:00 10.3 0 Calma 9 Este 0 -- -- 69
2019-06-18 04:00:00 12.2 0 Calma 11 Este 0 -- -- 63
2019-06-18 03:00:00 14.2 2 Norte 6 Oeste 0 -- -- 54
2019-06-18 02:00:00 17.8 6 Noroeste 23 Noroeste 0 -- -- 42
2019-06-18 01:00:00 19.9 9 Norte 37 Norte 0 -- -- 38
2019-06-18 00:00:00 20.5 9 Norte 26 Noroeste 0 -- -- 34
2019-06-17 23:00:00 20.4 5 Nordeste 22 Noroeste 0 -- -- 38
2019-06-17 22:00:00 21 4 Oeste 16 Noroeste 0 -- -- 39
2019-06-17 21:00:00 22.5 10 Norte 17 Noroeste 0 -- -- 35
2019-06-17 20:00:00 24.3 8 Norte 19 Norte 0 -- -- 32
2019-06-17 19:00:00 25 10 Norte 23 Oeste 0 -- -- 29
2019-06-17 18:00:00 25.6 10 Norte 29 Norte 0 -- -- 29
2019-06-17 17:00:00 26 13 Noroeste 31 Noroeste 0 -- -- 29
2019-06-17 16:00:00 26.7 19 Noroeste 35 Noroeste 0 -- -- 28
2019-06-17 15:00:00 26.5 16 Noroeste 37 Noroeste 0 -- -- 29
2019-06-17 14:00:00 25.8 14 Noroeste 31 Oeste 0 -- -- 31
2019-06-17 13:00:00 24.5 11 Noroeste 32 Oeste 0 -- -- 38
2019-06-17 12:00:00 22.2 12 Oeste 26 Noroeste 0 -- -- 44
2019-06-17 11:00:00 19 3 Sudoeste 10 Noroeste 0 -- -- 63
2019-06-17 10:00:00 16.3 3 Sur 10 Noroeste 0 -- -- 76
2019-06-17 09:00:00 12.8 2 Sudeste 5 Sudeste 0 -- -- 87
2019-06-17 08:00:00 7.8 5 Este 9 Sudeste 0 -- -- 97
2019-06-17 07:00:00 6.8 0 Calma 9 Este 0 -- -- 94
2019-06-17 06:00:00 7.8 3 Nordeste 6 Este 0 -- -- 95
2019-06-17 05:00:00 8.9 6 Este 12 Este 0 -- -- 96
2019-06-17 04:00:00 9.3 3 Este 9 Este 0 -- -- 94
2019-06-17 03:00:00 10 5 Este 9 Sudeste 0 -- -- 93
2019-06-17 02:00:00 11.3 3 Este 6 Sudeste 0 -- -- 90
2019-06-17 01:00:00 12.7 4 Este 8 Sudeste 0 -- -- 89
2019-06-17 00:00:00 14 3 Este 19 Sudeste 0 -- -- 87
2019-06-16 23:00:00 14.3 9 Sur 21 Sudeste 0 -- -- 88
2019-06-16 22:00:00 15.6 8 Sur 30 Sur 0 -- -- 82
2019-06-16 21:00:00 17.4 18 Sur 31 Sur 0 -- -- 76
2019-06-16 20:00:00 21.7 15 Sudeste 29 Sudeste 0 -- -- 60
2019-06-16 19:00:00 25 10 Oeste 23 Noroeste 0 -- -- 28
2019-06-16 18:00:00 26.1 9 Noroeste 26 Norte 0 -- -- 29
2019-06-16 17:00:00 25.9 8 Noroeste 21 Oeste 0 -- -- 30
2019-06-16 16:00:00 24.9 8 Oeste 27 Oeste 0 -- -- 32
2019-06-16 15:00:00 24.1 6 Oeste 23 Noroeste 0 -- -- 33
2019-06-16 14:00:00 22.7 6 Oeste 23 Oeste 0 -- -- 36
2019-06-16 13:00:00 20.9 8 Noroeste 22 Noroeste 0 -- -- 44
2019-06-16 12:00:00 17.9 5 Oeste 13 Sudoeste 0 -- -- 55
2019-06-16 11:00:00 15 7 Noroeste 10 Noroeste 0 -- -- 66
2019-06-16 10:00:00 12.3 3 Sudeste 6 Sudeste 0 -- -- 77
2019-06-16 09:00:00 8.9 3 Sudeste 7 Este 0 -- -- 87
2019-06-16 08:00:00 4.3 6 Este 12 Este 0 -- -- 96
2019-06-16 07:00:00 3.5 5 Este 14 Este 0 -- -- 96
2019-06-16 06:00:00 3.7 7 Este 13 Este 0 -- -- 95
2019-06-16 05:00:00 4.6 5 Este 15 Este 0 -- -- 94
2019-06-16 04:00:00 6.1 6 Este 10 Este 0 -- -- 92
2019-06-16 03:00:00 6.9 7 Sudeste 14 Sudeste 0 -- -- 93
2019-06-16 02:00:00 7.5 7 Sudeste 12 Sudeste 0 -- -- 90
2019-06-16 01:00:00 8.3 5 Sudeste 16 Sudeste 0 -- -- 88
2019-06-16 00:00:00 8.6 7 Sudeste 21 Sudeste 0 -- -- 87
2019-06-15 23:00:00 8.8 8 Sudeste 23 Sudeste 0 -- -- 86
2019-06-15 22:00:00 9.5 9 Sudeste 28 Sur 0 -- -- 84
2019-06-15 21:00:00 11 14 Sudeste 39 Sudeste 0 -- -- 79
2019-06-15 20:00:00 13.5 22 Sudeste 37 Sur 0 -- -- 72
2019-06-15 19:00:00 17 15 Sudeste 32 Sudeste 0 -- -- 61
2019-06-15 18:00:00 19.4 21 Sur 32 Sudeste 0 -- -- 55
2019-06-15 17:00:00 20.8 9 Norte 17 Norte 0 -- -- 40
2019-06-15 16:00:00 19.2 8 Norte 19 Noroeste 0 -- -- 43
2019-06-15 15:00:00 17.5 2 Noroeste 17 Norte 0 -- -- 47
2019-06-15 14:00:00 17.4 7 Norte 20 Noroeste 0 -- -- 45
2019-06-15 13:00:00 16 9 Sudoeste 17 Noroeste 0 -- -- 52
2019-06-15 12:00:00 14 5 Noroeste 13 Sur 0 -- -- 61
2019-06-15 11:00:00 13.1 5 Sur 10 Sudeste 0 -- -- 66
2019-06-15 10:00:00 11.2 4 Sur 9 Sur 0 -- -- 76
2019-06-15 09:00:00 9.4 2 Oeste 6 Este 0 -- -- 85
2019-06-15 08:00:00 8.5 4 Este 8 Sudoeste 0 -- -- 91
2019-06-15 07:00:00 7.9 0 Calma 8 Sudeste 0 -- -- 91
2019-06-15 06:00:00 8.5 4 Sur 10 Sur 0 -- -- 91
2019-06-15 05:00:00 8.6 7 Sur 12 Sudeste 0 -- -- 87
2019-06-15 04:00:00 8.3 6 Sur 12 Sur 0 -- -- 89
2019-06-15 03:00:00 8.2 5 Sudeste 13 Sudeste 0 -- -- 88
2019-06-15 02:00:00 8.4 8 Sudeste 17 Sudeste 0 -- -- 88
2019-06-15 01:00:00 8.7 7 Sur 16 Sur 0 -- -- 84
2019-06-15 00:00:00 8.7 8 Sur 21 Sur 0 -- -- 85
2019-06-14 23:00:00 8.8 10 Sur 29 Sudeste 0 -- -- 88
2019-06-14 22:00:00 9.6 12 Sur 26 Sudeste 0 -- -- 86
2019-06-14 21:00:00 10.9 12 Sur 28 Sur 0 -- -- 82
2019-06-14 20:00:00 12.5 18 Sudeste 37 Sudeste 0 -- -- 77
2019-06-14 19:00:00 13.9 19 Sur 41 Sur 0 -- -- 73
2019-06-14 18:00:00 14.9 22 Sur 43 Sudeste 0 -- -- 70
2019-06-14 17:00:00 16.9 23 Sur 37 Sudeste 0 -- -- 65
2019-06-14 16:00:00 18.1 18 Sur 35 Sur 0 -- -- 61
2019-06-14 15:00:00 20.1 14 Sudeste 30 Sudeste 0 -- -- 56
2019-06-14 14:00:00 19.4 5 Oeste 17 Sur 0 -- -- 47
2019-06-14 13:00:00 17.3 8 Sur 16 Sudoeste 0 -- -- 60
2019-06-14 12:00:00 14.7 7 Sur 21 Sur 0 -- -- 72
2019-06-14 11:00:00 12 7 Sur 16 Sudeste 0 -- -- 80
2019-06-14 10:00:00 9.3 10 Sur 18 Sudeste 0 -- -- 90
2019-06-14 09:00:00 7.7 7 Sudeste 13 Sudeste 0 -- -- 96
2019-06-14 08:00:00 4.2 8 Este 16 Este 0 -- -- 96
2019-06-14 07:00:00 3.5 10 Este 15 Este 0 -- -- 95
2019-06-14 06:00:00 3.3 7 Este 11 Este 0 -- -- 95
2019-06-14 05:00:00 4.1 8 Este 12 Este 0 -- -- 93
2019-06-14 04:00:00 5.9 4 Sudeste 14 Sudeste 0 -- -- 94
2019-06-14 03:00:00 6.6 8 Sudeste 16 Sur 0 -- -- 94
2019-06-14 02:00:00 7.4 10 Sudeste 24 Sudeste 0 -- -- 94
2019-06-14 01:00:00 8 8 Sur 21 Sur 0 -- -- 92
2019-06-14 00:00:00 8.1 9 Sudeste 30 Sur 0 -- -- 92
2019-06-13 23:00:00 8.2 14 Sur 30 Sudeste 0 -- -- 92
2019-06-13 22:00:00 8.8 14 Sur 36 Sur 0 -- -- 88
2019-06-13 21:00:00 10 26 Sur 43 Sur 0 -- -- 84
2019-06-13 20:00:00 12.5 26 Sur 45 Sudeste 0 -- -- 74
2019-06-13 19:00:00 15.8 19 Sudeste 37 Sudeste 0 -- -- 64
2019-06-13 18:00:00 22.5 15 Noroeste 30 Noroeste 0 -- -- 26
2019-06-13 17:00:00 22.1 14 Noroeste 36 Norte 0 -- -- 27
2019-06-13 16:00:00 21.4 14 Oeste 33 Oeste 0 -- -- 28
2019-06-13 15:00:00 20.8 16 Oeste 36 Oeste 0 -- -- 31
2019-06-13 14:00:00 19.3 13 Oeste 24 Noroeste 0 -- -- 39
2019-06-13 13:00:00 16.1 6 Sur 19 Sudeste 0 -- -- 65
2019-06-13 12:00:00 13.2 8 Sudeste 21 Sur 0 -- -- 71
2019-06-13 11:00:00 11.1 12 Sudoeste 20 Sur 0 -- -- 73
2019-06-13 10:00:00 10.2 12 Sur 22 Sudoeste 0 -- -- 75
2019-06-13 09:00:00 9.3 12 Sudeste 22 Sur 0 -- -- 77
2019-06-13 08:00:00 7.3 4 Sudeste 12 Sudeste 0 -- -- 87
2019-06-13 07:00:00 6.4 6 Sudeste 12 Sudeste 0 -- -- 88
2019-06-13 06:00:00 7.2 6 Sudeste 17 Sur 0 -- -- 86
2019-06-13 05:00:00 7.2 6 Sudeste 14 Sudeste 0 -- -- 86
2019-06-13 04:00:00 6.2 5 Sudeste 12 Sudeste 0 -- -- 90
2019-06-13 03:00:00 6 6 Sudeste 13 Este 0 -- -- 90
2019-06-13 02:00:00 5.8 7 Sudeste 19 Sudeste 0 -- -- 92
2019-06-13 01:00:00 5.8 9 Sudeste 15 Sur 0 -- -- 92
2019-06-13 00:00:00 6.3 6 Sudeste 19 Sur 0 -- -- 91
2019-06-12 23:00:00 7 12 Sur 21 Sudeste 0 -- -- 90
2019-06-12 22:00:00 7.9 8 Sudeste 23 Sudeste 0 -- -- 88
2019-06-12 21:00:00 9.4 14 Sur 33 Sudeste 0 -- -- 82
2019-06-12 20:00:00 11.9 14 Sudeste 33 Sudeste 0 -- -- 73
2019-06-12 19:00:00 14.5 17 Sur 32 Sudeste 0 -- -- 61
2019-06-12 18:00:00 15.5 18 Sur 32 Sur 0 -- -- 56
2019-06-12 17:00:00 15.9 9 Sudeste 17 Sudeste 0 -- -- 44
2019-06-12 16:00:00 16.2 8 Noroeste 28 Norte 0 -- -- 44
2019-06-12 15:00:00 15.1 7 Oeste 28 Noroeste 0 -- -- 41
2019-06-12 14:00:00 15.2 8 Sudoeste 21 Sudoeste 0 -- -- 40
2019-06-12 13:00:00 13.5 9 Oeste 21 Noroeste 0 -- -- 44
2019-06-12 12:00:00 12 8 Oeste 17 Sudoeste 0 -- -- 52
2019-06-12 11:00:00 10.1 4 Norte 12 Sudoeste 0 -- -- 58
2019-06-12 10:00:00 7.9 3 Sur 9 Sur 0 -- -- 76
2019-06-12 09:00:00 5.2 2 Sudoeste 6 Sur 0 -- -- 91
2019-06-12 08:00:00 0.6 3 Sudeste 13 Este 0 -- -- 98
2019-06-12 07:00:00 -0.7 0 Calma 14 Este 0 -- -- 95
2019-06-12 06:00:00 0 10 Este 14 Este 0 -- -- 95
2019-06-12 05:00:00 0.7 5 Nordeste 12 Este 0 -- -- 95
2019-06-12 04:00:00 1.4 5 Este 14 Este 0 -- -- 94
2019-06-12 03:00:00 2.2 4 Este 12 Este 0 -- -- 93
2019-06-12 02:00:00 3.4 11 Este 15 Este 0 -- -- 93
2019-06-12 01:00:00 3.9 0 Calma 5 Este 0 -- -- 90
2019-06-12 00:00:00 5.2 0 Calma 5 Sur 0 -- -- 86
2019-06-11 23:00:00 6.9 2 Sur 12 Sudeste 0 -- -- 81
2019-06-11 22:00:00 8.5 5 Sudeste 15 Sudeste 0 -- -- 74
2019-06-11 21:00:00 10.7 8 Sur 19 Sudeste 0 -- -- 64
2019-06-11 20:00:00 13.2 6 Este 20 Este 0 -- -- 48
2019-06-11 19:00:00 14.4 10 Este 33 Sudeste 0 -- -- 49
2019-06-11 18:00:00 15.2 11 Sudeste 27 Sudeste 0 -- -- 45
2019-06-11 17:00:00 15.4 8 Este 29 Este 0 -- -- 45
2019-06-11 16:00:00 14.6 10 Norte 31 Noroeste 0 -- -- 45
2019-06-11 15:00:00 14.5 9 Sudeste 30 Sudeste 0 -- -- 48
2019-06-11 14:00:00 13.6 9 Norte 24 Nordeste 0 -- -- 57
2019-06-11 13:00:00 11.3 9 Nordeste 28 Nordeste 0 -- -- 59
2019-06-11 12:00:00 9.8 10 Norte 27 Nordeste 0 -- -- 64
2019-06-11 11:00:00 9.8 8 Norte 21 Norte 0 -- -- 73
2019-06-11 10:00:00 8 3 Noroeste 11 Oeste 0 -- -- 85
2019-06-11 09:00:00 7.8 3 Sudeste 12 Sudeste 0 -- -- 89
2019-06-11 08:00:00 5.5 0 Calma 4 Sudeste 0 -- -- 99
2019-06-11 07:00:00 4.7 2 Norte 7 Este 0 -- -- 98
2019-06-11 06:00:00 4.3 0 Calma 5 Noroeste 0 -- -- 97
2019-06-11 05:00:00 4.2 0 Calma 6 Este 0 -- -- 96
2019-06-11 04:00:00 4.6 4 Sudeste 10 Sudoeste 0 -- -- 94
2019-06-11 03:00:00 5.9 5 Sudoeste 15 Sudeste 0 -- -- 94
2019-06-11 02:00:00 6.3 8 Sur 16 Sudeste 0 -- -- 95
2019-06-11 01:00:00 6.3 6 Sur 17 Sur 0.6 -- -- 96
2019-06-11 00:00:00 6.2 9 Sur 19 Sudeste 1.4 -- -- 95
2019-06-10 23:00:00 6.3 13 Sur 26 Sur 0.4 -- -- 93
2019-06-10 22:00:00 6.7 14 Sur 30 Sudeste 0 -- -- 89
2019-06-10 21:00:00 7.7 13 Sur 23 Sudeste 0 -- -- 91
2019-06-10 20:00:00 8.4 8 Sudeste 24 Sur 0 -- -- 89
2019-06-10 19:00:00 9.2 9 Sudeste 24 Sudeste 0 -- -- 85
2019-06-10 18:00:00 10.3 13 Sudeste 27 Sudeste 0 -- -- 80
2019-06-10 17:00:00 13 13 Sudeste 31 Sudeste 0 -- -- 69
2019-06-10 16:00:00 13.3 16 Sur 28 Sudeste 0 -- -- 66
2019-06-10 15:00:00 13.9 10 Sur 22 Sur 0 -- -- 62
2019-06-10 14:00:00 13.4 8 Sur 16 Oeste 0 -- -- 63
2019-06-10 13:00:00 12.3 7 Sur 14 Sur 0 -- -- 68
2019-06-10 12:00:00 10.2 3 Noroeste 10 Noroeste 0 -- -- 74
2019-06-10 11:00:00 8.7 3 Noroeste 15 Sudeste 0 -- -- 80
2019-06-10 10:00:00 8.1 2 Oeste 12 Sur 0 -- -- 83
2019-06-10 09:00:00 7.6 5 Sudeste 10 Sur 0 -- -- 85
2019-06-10 08:00:00 6.9 4 Sur 15 Sudeste 0 -- -- 91
2019-06-10 07:00:00 6.9 7 Sur 12 Sudeste 0 -- -- 91
2019-06-10 06:00:00 7 5 Sudeste 14 Sudeste 0 -- -- 91
2019-06-10 05:00:00 7.1 5 Sudeste 13 Sudeste 0 -- -- 91
2019-06-10 04:00:00 7 4 Sudeste 21 Sudeste 0 -- -- 93
2019-06-10 03:00:00 7 8 Sudeste 23 Sudeste 0 -- -- 94
2019-06-10 02:00:00 7.2 9 Sur 24 Sudeste 0 -- -- 95
2019-06-10 01:00:00 7.4 9 Sur 18 Este 0 -- -- 94
2019-06-10 00:00:00 8 10 Sudeste 27 Sur 0.4 -- -- 93
2019-06-09 23:00:00 8.3 12 Sur 27 Sudeste 0 -- -- 91
2019-06-09 22:00:00 8.4 10 Sur 33 Sudeste 0.2 -- -- 93
2019-06-09 21:00:00 9.3 17 Sur 30 Sur 0 -- -- 88
2019-06-09 20:00:00 10.6 9 Sudeste 34 Sur 0 -- -- 81
2019-06-09 19:00:00 11.8 19 Sur 40 Sur 0 -- -- 77
2019-06-09 18:00:00 13.7 19 Sur 39 Sur 0 -- -- 71
2019-06-09 17:00:00 13.7 18 Sur 40 Sudeste 0 -- -- 75
2019-06-09 16:00:00 15 19 Sudeste 39 Sur 0 -- -- 70
2019-06-09 15:00:00 14.7 19 Sudeste 34 Sur 0 -- -- 70
2019-06-09 14:00:00 15.5 16 Sur 30 Sur 0 -- -- 68
2019-06-09 13:00:00 14.4 11 Sur 21 Sudeste 0 -- -- 70
2019-06-09 12:00:00 12.6 9 Sur 23 Sur 0 -- -- 77
2019-06-09 11:00:00 11.5 9 Sudoeste 20 Sudeste 0 -- -- 82
2019-06-09 10:00:00 10.7 8 Sudeste 17 Sudeste 0 -- -- 84
2019-06-09 09:00:00 10.1 8 Sur 15 Sur 0 -- -- 88
2019-06-09 08:00:00 9.6 8 Sur 14 Sur 0 -- -- 91
2019-06-09 07:00:00 9.4 7 Sur 14 Sudeste 0 -- -- 92
2019-06-09 06:00:00 9.3 7 Sur 13 Sudeste 0 -- -- 91
2019-06-09 05:00:00 9.2 8 Sur 16 Sudeste 0 -- -- 91
2019-06-09 04:00:00 9.1 8 Sur 15 Sudeste 0 -- -- 91
2019-06-09 03:00:00 8.5 7 Sudeste 18 Sudeste 0 -- -- 94
2019-06-09 02:00:00 8.1 9 Sur 21 Sur 0 -- -- 94
2019-06-09 01:00:00 8.5 7 Sudeste 17 Sur 0 -- -- 91
2019-06-09 00:00:00 9 8 Sur 23 Sudeste 0 -- -- 88
2019-06-08 23:00:00 9.4 11 Sur 22 Sudeste 0 -- -- 88
2019-06-08 22:00:00 10.3 8 Sur 25 Sudeste 0 -- -- 85
2019-06-08 21:00:00 11.6 8 Sudeste 32 Sudeste 0 -- -- 81
2019-06-08 20:00:00 12.5 16 Sudeste 40 Sudeste 0 -- -- 78
2019-06-08 19:00:00 14.8 22 Sur 41 Sur 0 -- -- 71
2019-06-08 18:00:00 17.6 18 Sudeste 35 Sudeste 0 -- -- 60
2019-06-08 17:00:00 21.2 9 Noroeste 23 Sudoeste 0 -- -- 35
2019-06-08 16:00:00 20.6 8 Noroeste 19 Noroeste 0 -- -- 41
2019-06-08 15:00:00 18.7 9 Sudoeste 19 Sur 0 -- -- 47
2019-06-08 14:00:00 17.2 4 Norte 19 Sudoeste 0 -- -- 53
2019-06-08 13:00:00 14.7 4 Este 16 Sur 0 -- -- 59
2019-06-08 12:00:00 12.3 9 Sudoeste 17 Sur 0 -- -- 66
2019-06-08 11:00:00 10.4 13 Sur 20 Sur 0 -- -- 73
2019-06-08 10:00:00 9.2 10 Sur 20 Sur 0 -- -- 79
2019-06-08 09:00:00 7.9 7 Sudeste 16 Sudeste 0 -- -- 90
2019-06-08 08:00:00 5.1 4 Sudeste 8 Este 0 -- -- 98
2019-06-08 07:00:00 3 0 Calma 4 Este 0 -- -- 96
2019-06-08 06:00:00 3.4 0 Calma 10 Este 0 -- -- 97
2019-06-08 05:00:00 3.1 7 Este 11 Este 0 -- -- 96
2019-06-08 04:00:00 2.9 6 Este 9 Este 0 -- -- 95
2019-06-08 03:00:00 4.1 2 Este 8 Sur 0 -- -- 93
2019-06-08 02:00:00 5 4 Sur 10 Sur 0 -- -- 93
2019-06-08 01:00:00 5.3 5 Sur 11 Sudoeste 0 -- -- 92
2019-06-08 00:00:00 5.8 3 Sudeste 22 Sudeste 0 -- -- 90
2019-06-07 23:00:00 6.4 12 Sudeste 22 Sudeste 0 -- -- 88
2019-06-07 22:00:00 7.4 9 Sudeste 22 Sudeste 0 -- -- 82
2019-06-07 21:00:00 9.3 14 Sudeste 28 Este 0 -- -- 76
2019-06-07 20:00:00 10.9 18 Sur 38 Sur 0 -- -- 71
2019-06-07 19:00:00 13.2 20 Sudeste 42 Sudeste 0 -- -- 63
2019-06-07 18:00:00 15.5 11 Sudeste 31 Nordeste 0 -- -- 56
2019-06-07 17:00:00 16.9 14 Norte 40 Norte 0 -- -- 43
2019-06-07 16:00:00 16.7 15 Norte 40 Norte 0 -- -- 44
2019-06-07 15:00:00 15.8 17 Noroeste 39 Noroeste 0 -- -- 44
2019-06-07 14:00:00 14.2 13 Norte 34 Noroeste 0 -- -- 50
2019-06-07 13:00:00 13.5 18 Norte 36 Norte 0 -- -- 54
2019-06-07 12:00:00 11.5 18 Norte 47 Norte 0 -- -- 59
2019-06-07 11:00:00 9.9 21 Norte 40 Noroeste 0 -- -- 66
2019-06-07 10:00:00 8.7 22 Noroeste 33 Norte 0 -- -- 73
2019-06-07 09:00:00 6.9 15 Norte 49 Noroeste 0 -- -- 78
2019-06-07 08:00:00 6.4 22 Norte 36 Noroeste 0 -- -- 82
2019-06-07 07:00:00 6.3 12 Norte 29 Noroeste 0 -- -- 85
2019-06-07 06:00:00 6.5 8 Noroeste 31 Noroeste 0 -- -- 85
2019-06-07 05:00:00 6.6 15 Noroeste 31 Noroeste 0 -- -- 87
2019-06-07 04:00:00 6.9 14 Norte 30 Noroeste 0 -- -- 88
2019-06-07 03:00:00 7.1 17 Noroeste 35 Noroeste 0 -- -- 87
2019-06-07 02:00:00 7.7 16 Norte 32 Norte 0 -- -- 90
2019-06-07 01:00:00 7.6 12 Noroeste 24 Noroeste 0 -- -- 90
2019-06-07 00:00:00 7.8 7 Norte 48 Noroeste 2.4 -- -- 87
2019-06-06 23:00:00 10 25 Norte 46 Norte 1.6 -- -- 86
2019-06-06 22:00:00 11 11 Norte 35 Noroeste 1.4 -- -- 90
2019-06-06 21:00:00 11.3 20 Norte 41 Norte 2.4 -- -- 88
2019-06-06 20:00:00 16.4 21 Norte 45 Noroeste 0 -- -- 53
2019-06-06 19:00:00 17.5 18 Noroeste 55 Noroeste 0 -- -- 38
2019-06-06 18:00:00 18.2 24 Noroeste 60 Noroeste 0 -- -- 38
2019-06-06 17:00:00 18.2 26 Noroeste 52 Noroeste 0 -- -- 38
2019-06-06 16:00:00 17.3 24 Noroeste 47 Oeste 0 -- -- 42
2019-06-06 15:00:00 15.7 19 Oeste 39 Sudoeste 0 -- -- 49
2019-06-06 14:00:00 14 15 Oeste 41 Noroeste 0 -- -- 51
2019-06-06 13:00:00 13.4 17 Oeste 45 Noroeste 0 -- -- 57
2019-06-06 12:00:00 12 16 Noroeste 33 Noroeste 0 -- -- 60
2019-06-06 11:00:00 9.8 11 Noroeste 23 Oeste 0 -- -- 75
2019-06-06 10:00:00 7.3 4 Sudoeste 9 Sudoeste 0 -- -- 96
2019-06-06 09:00:00 5.4 0 Calma 5 Sur 0 -- -- 99
2019-06-06 08:00:00 3.1 0 Calma 9 Este 0 -- -- 99
2019-06-06 07:00:00 2.5 8 Este 10 Este 0 -- -- 97
2019-06-06 06:00:00 3.2 5 Este 9 Este 0 -- -- 97
2019-06-06 05:00:00 4 0 Calma 9 Este 0 -- -- 96
2019-06-06 04:00:00 4.4 0 Calma 8 Sudeste 0 -- -- 95
2019-06-06 03:00:00 5.3 4 Sudeste 7 Sudeste 0 -- -- 95
2019-06-06 02:00:00 5.7 3 Este 9 Sudeste 0 -- -- 95
2019-06-06 01:00:00 5.6 0 Calma 13 Sur 0 -- -- 95
2019-06-06 00:00:00 6 6 Sur 13 Sur 0 -- -- 95
2019-06-05 23:00:00 6.1 8 Sur 20 Sudeste 0.6 -- -- 94
2019-06-05 22:00:00 6.5 8 Sudeste 25 Sudeste 0.6 -- -- 91
2019-06-05 21:00:00 7.4 16 Sudeste 27 Sudeste 0 -- -- 85
2019-06-05 20:00:00 8.2 15 Sudeste 33 Sur 0 -- -- 80
2019-06-05 19:00:00 9.7 18 Sudeste 33 Sudeste 0 -- -- 77
2019-06-05 18:00:00 10.5 17 Sur 35 Sudeste 0 -- -- 81
2019-06-05 17:00:00 9.5 14 Sur 33 Sur 0.4 -- -- 89
2019-06-05 16:00:00 9.9 20 Sur 35 Sudeste 0.2 -- -- 81
2019-06-05 15:00:00 11 15 Sudeste 36 Sudeste 0.6 -- -- 79
2019-06-05 14:00:00 11.1 10 Sudeste 27 Sudeste 0.4 -- -- 72
2019-06-05 13:00:00 10.6 6 Sudoeste 19 Sur 0.2 -- -- 81
2019-06-05 12:00:00 10.6 10 Sur 20 Oeste 0 -- -- 80
2019-06-05 11:00:00 11.6 3 Oeste 10 Noroeste 0.2 -- -- 77
2019-06-05 10:00:00 9.9 4 Sudoeste 10 Sudoeste 0 -- -- 84
2019-06-05 09:00:00 8.9 4 Sur 8 Sur 0 -- -- 89
2019-06-05 08:00:00 6.7 3 Sudeste 13 Sudeste 0.4 -- -- 96
2019-06-05 07:00:00 6.8 6 Sudeste 13 Sur 2 -- -- 96
2019-06-05 06:00:00 6.8 10 Sur 22 Sudeste 1 -- -- 95
2019-06-05 05:00:00 7.1 3 Sur 18 Sur 1 -- -- 95
2019-06-05 04:00:00 7.1 8 Sudeste 19 Sudeste 2.4 -- -- 95
2019-06-05 03:00:00 7.3 5 Sudeste 22 Sur 0.8 -- -- 94
2019-06-05 02:00:00 7.7 12 Sudeste 26 Sudeste 0.2 -- -- 91
2019-06-05 01:00:00 7.7 14 Sur 26 Sudeste 0 -- -- 92
2019-06-05 00:00:00 7.9 12 Sur 30 Sur 0 -- -- 92
2019-06-04 23:00:00 8.4 11 Sur 33 Sudeste 0.6 -- -- 94
2019-06-04 22:00:00 9.5 14 Sudeste 34 Sudeste 0.2 -- -- 89
2019-06-04 21:00:00 10.8 18 Sudeste 39 Sudeste 0 -- -- 81
2019-06-04 20:00:00 12.4 20 Sudeste 45 Sudeste 0 -- -- 77
2019-06-04 19:00:00 13.1 23 Sudeste 41 Sudeste 0 -- -- 77
2019-06-04 18:00:00 18.9 12 Este 31 Noroeste 0 -- -- 57
2019-06-04 17:00:00 21.1 12 Noroeste 30 Noroeste 0 -- -- 45
2019-06-04 16:00:00 21 15 Noroeste 30 Norte 0 -- -- 45
2019-06-04 15:00:00 20.7 11 Noroeste 30 Noroeste 0 -- -- 47
2019-06-04 14:00:00 19.9 12 Noroeste 29 Noroeste 0 -- -- 51
2019-06-04 13:00:00 17.8 13 Noroeste 29 Norte 0 -- -- 60
2019-06-04 12:00:00 16.8 17 Norte 33 Norte 0 -- -- 64
2019-06-04 11:00:00 15.4 14 Noroeste 32 Noroeste 0 -- -- 68
2019-06-04 10:00:00 14.3 14 Noroeste 35 Noroeste 0 -- -- 74
2019-06-04 09:00:00 13.1 10 Noroeste 23 Oeste 0 -- -- 82
2019-06-04 08:00:00 11.5 9 Noroeste 17 Noroeste 0 -- -- 93
2019-06-04 07:00:00 9.5 5 Noroeste 9 Norte 0 -- -- 98
2019-06-04 06:00:00 8 0 Calma 3 Noroeste 0 -- -- 94
2019-06-04 05:00:00 8.9 0 Calma 2 Este 0 -- -- 92
2019-06-04 04:00:00 10.2 3 Nordeste 6 Este 0 -- -- 92
2019-06-04 03:00:00 11 0 Calma 8 Este 0 -- -- 90
2019-06-04 02:00:00 11.9 2 Nordeste 8 Este 0 -- -- 89
2019-06-04 01:00:00 13.3 3 Norte 13 Sur 0 -- -- 84
2019-06-04 00:00:00 14.5 6 Sur 24 Sur 0 -- -- 81
2019-06-03 23:00:00 15.2 7 Sur 28 Sudeste 0 -- -- 82
2019-06-03 22:00:00 16.4 10 Sudeste 30 Sudeste 0 -- -- 82
2019-06-03 21:00:00 20.1 12 Sudeste 27 Sudeste 0 -- -- 67
2019-06-03 20:00:00 25.6 12 Noroeste 32 Noroeste 0 -- -- 37
2019-06-03 19:00:00 27.1 13 Noroeste 30 Noroeste 0 -- -- 36
2019-06-03 18:00:00 27.7 13 Noroeste 31 Norte 0 -- -- 35
2019-06-03 17:00:00 27.3 14 Noroeste 35 Oeste 0 -- -- 35
2019-06-03 16:00:00 27.3 14 Noroeste 32 Noroeste 0 -- -- 37
2019-06-03 15:00:00 26.5 11 Norte 33 Noroeste 0 -- -- 38
2019-06-03 14:00:00 25 9 Oeste 25 Oeste 0 -- -- 40
2019-06-03 13:00:00 23.2 5 Norte 23 Noroeste 0 -- -- 45
2019-06-03 12:00:00 20.6 4 Noroeste 13 Sudoeste 0 -- -- 51
2019-06-03 11:00:00 18.6 3 Sudeste 13 Sudoeste 0 -- -- 58
2019-06-03 10:00:00 16.1 5 Sur 9 Sur 0 -- -- 62
2019-06-03 09:00:00 12.6 0 Calma 6 Sudeste 0 -- -- 76
2019-06-03 08:00:00 10.1 4 Este 9 Este 0 -- -- 85
2019-06-03 07:00:00 9.8 6 Este 15 Nordeste 0 -- -- 85
2019-06-03 06:00:00 8.3 4 Nordeste 10 Nordeste 0 -- -- 89
2019-06-03 05:00:00 8.4 4 Este 13 Este 0 -- -- 84
2019-06-03 04:00:00 9.7 0 Calma 10 Este 0 -- -- 80
2019-06-03 03:00:00 11.4 5 Este 9 Este 0 -- -- 72
2019-06-03 02:00:00 12.8 5 Sur 12 Sudeste 0 -- -- 67
2019-06-03 01:00:00 13.5 5 Sudeste 16 Sur 0 -- -- 65
2019-06-03 00:00:00 15 9 Sudeste 22 Sur 0 -- -- 60
2019-06-02 23:00:00 15.7 8 Sudeste 19 Sur 0 -- -- 62
2019-06-02 22:00:00 17.3 13 Sudeste 24 Sudeste 0 -- -- 58
2019-06-02 21:00:00 19.4 15 Sur 41 Sudeste 0 -- -- 52
2019-06-02 20:00:00 22.3 17 Sudeste 29 Sur 0 -- -- 46
2019-06-02 19:00:00 25.3 9 Sudeste 28 Este 0 -- -- 37
2019-06-02 18:00:00 27.6 12 Norte 32 Noroeste 0 -- -- 25
2019-06-02 17:00:00 28.2 15 Norte 36 Noroeste 0 -- -- 21
2019-06-02 16:00:00 28.8 13 Noroeste 31 Norte 0 -- -- 23
2019-06-02 15:00:00 27.8 14 Noroeste 36 Norte 0 -- -- 28
2019-06-02 14:00:00 28 17 Norte 40 Oeste 0 -- -- 31
2019-06-02 13:00:00 26.3 13 Noroeste 28 Oeste 0 -- -- 39
2019-06-02 12:00:00 24.2 8 Oeste 21 Oeste 0 -- -- 42
2019-06-02 11:00:00 22 8 Oeste 18 Oeste 0 -- -- 49
2019-06-02 10:00:00 18.8 2 Sudeste 10 Noroeste 0 -- -- 60
2019-06-02 09:00:00 15.2 2 Sudeste 6 Este 0 -- -- 72
2019-06-02 08:00:00 10.1 2 Este 13 Este 0 -- -- 84
2019-06-02 07:00:00 9.4 2 Nordeste 14 Este 0 -- -- 83
2019-06-02 06:00:00 10.6 9 Este 13 Este 0 -- -- 79
2019-06-02 05:00:00 11.1 5 Este 14 Este 0 -- -- 79
2019-06-02 04:00:00 11.4 3 Este 13 Este 0 -- -- 78
2019-06-02 03:00:00 12.5 5 Nordeste 14 Este 0 -- -- 76
2019-06-02 02:00:00 13.5 4 Este 9 Este 0 -- -- 72
2019-06-02 01:00:00 15.4 7 Este 17 Sudeste 0 -- -- 67
2019-06-02 00:00:00 17.8 9 Sudeste 15 Sudeste 0 -- -- 61
2019-06-01 23:00:00 19.3 4 Sudeste 14 Sudeste 0 -- -- 57
2019-06-01 22:00:00 22 7 Sudeste 15 Sudeste 0 -- -- 44
2019-06-01 21:00:00 24.5 6 Sudeste 21 Este 0 -- -- 43
2019-06-01 20:00:00 25.5 11 Sudeste 30 Sudeste 0 -- -- 38
2019-06-01 19:00:00 30.1 9 Oeste 24 Noroeste 0 -- -- 24
2019-06-01 18:00:00 30.8 9 Norte 26 Noroeste 0 -- -- 25
2019-06-01 17:00:00 30.8 9 Norte 23 Norte 0 -- -- 29
2019-06-01 16:00:00 30.6 8 Noroeste 20 Oeste 0 -- -- 27
2019-06-01 15:00:00 30 8 Noroeste 28 Noroeste 0 -- -- 27
2019-06-01 14:00:00 29.2 10 Noroeste 30 Noroeste 0 -- -- 29
2019-06-01 13:00:00 27.6 7 Noroeste 17 Oeste 0 -- -- 35
2019-06-01 12:00:00 25 5 Norte 15 Noroeste 0 -- -- 37
2019-06-01 11:00:00 22.6 4 Norte 9 Noroeste 0 -- -- 45
2019-06-01 10:00:00 19.1 6 Noroeste 12 Noroeste 0 -- -- 59
2019-06-01 09:00:00 13.7 0 Calma 3 Sudeste 0 -- -- 72
2019-06-01 08:00:00 7.7 2 Sudeste 6 Este 0 -- -- 90
2019-06-01 07:00:00 6.7 0 Calma 4 Noroeste 0 -- -- 90
2019-06-01 06:00:00 7.4 0 Calma 14 Este 0 -- -- 86
2019-06-01 05:00:00 8.2 6 Este 11 Este 0 -- -- 85
2019-06-01 04:00:00 8.9 2 Nordeste 9 Este 0 -- -- 82
2019-06-01 03:00:00 10.7 9 Este 16 Este 0 -- -- 75
2019-06-01 02:00:00 11.6 3 Nordeste 15 Este 0 -- -- 73
2019-06-01 01:00:00 12.8 12 Este 16 Este 0 -- -- 65
2019-06-01 00:00:00 14.1 4 Este 9 Este 0 -- -- 61
2019-05-31 23:00:00 16.1 0 Calma 10 Sur 0 -- -- 59
2019-05-31 22:00:00 19.8 6 Sudeste 15 Este 0 -- -- 49
2019-05-31 21:00:00 23.2 5 Sudeste 21 Sudeste 0 -- -- 37
2019-05-31 20:00:00 25.3 14 Sur 28 Sur 0 -- -- 31
2019-05-31 19:00:00 26.9 12 Sudeste 31 Este 0 -- -- 31
2019-05-31 18:00:00 27.7 12 Sudeste 26 Sudeste 0 -- -- 32
2019-05-31 17:00:00 28.3 9 Sudeste 26 Sur 0 -- -- 26
2019-05-31 16:00:00 28.4 5 Oeste 17 Sur 0 -- -- 27
2019-05-31 15:00:00 27.2 6 Sur 18 Sudoeste 0 -- -- 27
2019-05-31 14:00:00 25.9 5 Oeste 15 Sudoeste 0 -- -- 31
2019-05-31 13:00:00 24.5 4 Sudoeste 14 Noroeste 0 -- -- 37
2019-05-31 12:00:00 22.8 7 Noroeste 14 Oeste 0 -- -- 38
2019-05-31 11:00:00 19.8 3 Oeste 8 Noroeste 0 -- -- 53
2019-05-31 10:00:00 15.7 0 Calma 9 Noroeste 0 -- -- 62
2019-05-31 09:00:00 11.7 3 Este 9 Este 0 -- -- 79
2019-05-31 08:00:00 6.3 5 Este 9 Este 0 -- -- 93
2019-05-31 07:00:00 4.8 3 Este 7 Sudeste 0 -- -- 92
2019-05-31 06:00:00 6.1 3 Norte 14 Este 0 -- -- 89
2019-05-31 05:00:00 7 12 Este 17 Este 0 -- -- 89
2019-05-31 04:00:00 8.2 8 Este 13 Este 0 -- -- 88
2019-05-31 03:00:00 9 5 Este 15 Este 0 -- -- 87
2019-05-31 02:00:00 10.2 4 Este 10 Este 0 -- -- 87
2019-05-31 01:00:00 11.9 0 Calma 6 Norte 0 -- -- 81
2019-05-31 00:00:00 14.7 3 Sudeste 21 Sudeste 0 -- -- 73
2019-05-30 23:00:00 16.1 10 Sudeste 20 Este 0 -- -- 69
2019-05-30 22:00:00 17.9 7 Sur 26 Sur 0 -- -- 65
2019-05-30 21:00:00 20 15 Sur 31 Sudeste 0 -- -- 57
2019-05-30 20:00:00 21.9 14 Sudeste 35 Sudeste 0 -- -- 50
2019-05-30 19:00:00 23.5 14 Sudeste 33 Este 0 -- -- 51
2019-05-30 18:00:00 24.9 18 Sur 36 Sudeste 0 -- -- 47
2019-05-30 17:00:00 25.3 10 Sur 24 Sur 0 -- -- 42
2019-05-30 16:00:00 25.1 13 Sudeste 24 Sudeste 0 -- -- 41
2019-05-30 15:00:00 24.5 11 Sudeste 22 Sudeste 0 -- -- 44
2019-05-30 14:00:00 23.1 8 Sur 19 Sur 0 -- -- 44
2019-05-30 13:00:00 21.6 9 Sudoeste 19 Sudoeste 0 -- -- 47
2019-05-30 12:00:00 19.5 7 Sudoeste 16 Sur 0 -- -- 54
2019-05-30 11:00:00 16.8 5 Sudoeste 11 Sudoeste 0 -- -- 63
2019-05-30 10:00:00 13.1 2 Oeste 5 Sudoeste 0 -- -- 77
2019-05-30 09:00:00 9.6 0 Calma 8 Este 0 -- -- 89
2019-05-30 08:00:00 4.5 0 Calma 3 Este 0 -- -- 98
2019-05-30 07:00:00 3.9 0 Calma 14 Este 0 -- -- 95
2019-05-30 06:00:00 4.4 3 Este 13 Este 0 -- -- 96
2019-05-30 05:00:00 5.2 3 Nordeste 15 Este 0 -- -- 95
2019-05-30 04:00:00 5.5 6 Este 11 Este 0 -- -- 94
2019-05-30 03:00:00 6.6 2 Nordeste 14 Este 0 -- -- 93
2019-05-30 02:00:00 8 0 Calma 6 Norte 0 -- -- 90
2019-05-30 01:00:00 9.4 3 Sudeste 14 Sudeste 0 -- -- 89
2019-05-30 00:00:00 10.5 3 Norte 14 Sur 0 -- -- 85
2019-05-29 23:00:00 12.2 4 Sur 27 Sur 0 -- -- 83
2019-05-29 22:00:00 13.7 11 Sur 24 Sudeste 0 -- -- 75
2019-05-29 21:00:00 15.2 10 Sudeste 35 Sudeste 0 -- -- 71
2019-05-29 20:00:00 16.6 18 Sur 39 Sur 0 -- -- 65
2019-05-29 19:00:00 17.9 20 Sur 42 Sudeste 0 -- -- 60
2019-05-29 18:00:00 18.9 17 Sudeste 39 Sur 0 -- -- 58
2019-05-29 17:00:00 18.8 18 Sudeste 42 Sudeste 0 -- -- 55
2019-05-29 16:00:00 18.6 20 Sur 42 Sur 0 -- -- 55
2019-05-29 15:00:00 17.7 18 Sur 38 Sudeste 0 -- -- 58
2019-05-29 14:00:00 16.8 17 Sur 35 Sur 0 -- -- 59
2019-05-29 13:00:00 15.6 17 Sur 30 Sur 0 -- -- 61
2019-05-29 12:00:00 14.9 14 Sur 32 Sur 0 -- -- 61
2019-05-29 11:00:00 13.6 6 Nordeste 16 Nordeste 0 -- -- 66
2019-05-29 10:00:00 11.2 4 Noroeste 10 Sur 0 -- -- 72
2019-05-29 09:00:00 8.9 3 Sudoeste 8 Sudeste 0 -- -- 78
2019-05-29 08:00:00 3.6 2 Este 8 Sudeste 0 -- -- 94
2019-05-29 07:00:00 2.8 0 Calma 12 Este 0 -- -- 91
2019-05-29 06:00:00 3.6 3 Este 9 Este 0 -- -- 91
2019-05-29 05:00:00 4.4 0 Calma 10 Sur 0 -- -- 88
2019-05-29 04:00:00 4.2 3 Noroeste 5 Norte 0 -- -- 89
2019-05-29 03:00:00 4.8 4 Norte 9 Noroeste 0 -- -- 88
2019-05-29 02:00:00 5.1 3 Este 10 Noroeste 0 -- -- 87
2019-05-29 01:00:00 5.6 4 Este 8 Este 0 -- -- 86
2019-05-29 00:00:00 7 2 Nordeste 17 Sudeste 0 -- -- 80
2019-05-28 23:00:00 7.9 12 Sur 29 Sur 0 -- -- 78
2019-05-28 22:00:00 8.8 14 Sur 28 Sur 0 -- -- 74
2019-05-28 21:00:00 11.1 13 Sur 28 Sur 0 -- -- 67
2019-05-28 20:00:00 12 18 Sur 36 Sudeste 0 -- -- 62
2019-05-28 19:00:00 14.1 11 Sudeste 38 Sudeste 0 -- -- 54
2019-05-28 18:00:00 13.9 21 Sur 40 Sur 0 -- -- 59
2019-05-28 17:00:00 15.1 23 Sudeste 46 Sur 0 -- -- 57
2019-05-28 16:00:00 15.7 19 Sur 44 Sur 0 -- -- 54
2019-05-28 15:00:00 14.9 22 Sur 42 Sur 0 -- -- 54
2019-05-28 14:00:00 14.9 18 Sur 36 Sur 0 -- -- 55
2019-05-28 13:00:00 14.7 7 Sudoeste 26 Noroeste 0 -- -- 53
2019-05-28 12:00:00 13.4 9 Este 19 Sudeste 0 -- -- 56
2019-05-28 11:00:00 11.9 6 Oeste 17 Oeste 0 -- -- 60
2019-05-28 10:00:00 9.7 5 Oeste 11 Oeste 0 -- -- 66
2019-05-28 09:00:00 8.5 7 Norte 11 Norte 0 -- -- 74
2019-05-28 08:00:00 4.8 5 Este 9 Este 0 -- -- 89
2019-05-28 07:00:00 5.4 5 Sudeste 15 Sudeste 0 -- -- 86
2019-05-28 06:00:00 5.8 7 Sudeste 14 Sudeste 0 -- -- 85
2019-05-28 05:00:00 6.3 7 Sudeste 13 Sudeste 0 -- -- 85
2019-05-28 04:00:00 6.9 7 Sudeste 20 Sudeste 0 -- -- 85
2019-05-28 03:00:00 7.1 10 Sudeste 18 Sudeste 0 -- -- 83
2019-05-28 02:00:00 7.2 8 Sudeste 19 Sudeste 0 -- -- 84
2019-05-28 01:00:00 7.6 6 Sudeste 18 Sudeste 0 -- -- 83
2019-05-28 00:00:00 8.1 7 Sudeste 24 Sudeste 0 -- -- 83
2019-05-27 23:00:00 8.7 12 Sudeste 31 Sudeste 0 -- -- 85
2019-05-27 22:00:00 9.4 16 Sur 33 Sudeste 0 -- -- 87
2019-05-27 21:00:00 10.9 16 Sur 36 Sudeste 0 -- -- 82
2019-05-27 20:00:00 13.7 18 Sur 42 Sudeste 0 -- -- 72
2019-05-27 19:00:00 14.9 28 Sudeste 44 Sur 0 -- -- 68
2019-05-27 18:00:00 16 23 Sur 43 Sur 0 -- -- 69
2019-05-27 17:00:00 17.5 19 Sudeste 43 Sur 0 -- -- 68
2019-05-27 16:00:00 17.7 18 Sur 39 Sudeste 0 -- -- 66
2019-05-27 15:00:00 17.9 20 Sudeste 36 Sur 0 -- -- 67
2019-05-27 14:00:00 16.9 21 Sur 36 Sudeste 0 -- -- 70
2019-05-27 13:00:00 17.2 15 Sudeste 28 Sur 0 -- -- 71
2019-05-27 12:00:00 16.3 11 Sur 23 Sur 0 -- -- 71
2019-05-27 11:00:00 14.2 6 Sudoeste 14 Sudoeste 0 -- -- 77
2019-05-27 10:00:00 11.6 4 Sur 12 Sur 0 -- -- 85
2019-05-27 09:00:00 9.1 3 Sudoeste 13 Sur 0 -- -- 93
2019-05-27 08:00:00 7.8 5 Sur 10 Sur 0 -- -- 97
2019-05-27 07:00:00 6.5 4 Sudeste 10 Este 0 -- -- 98
2019-05-27 06:00:00 6.1 0 Calma 8 Sur 0 -- -- 95
2019-05-27 05:00:00 6.5 2 Sudeste 7 Sudeste 0 -- -- 94
2019-05-27 04:00:00 7.4 3 Este 7 Sur 0 -- -- 92
2019-05-27 03:00:00 8.4 4 Sudoeste 15 Sur 0 -- -- 91
2019-05-27 02:00:00 8.6 9 Sur 21 Sudeste 0 -- -- 92
2019-05-27 01:00:00 8.7 9 Sudeste 21 Sur 0 -- -- 92
2019-05-27 00:00:00 9.2 8 Sur 24 Sur 0 -- -- 90
2019-05-26 23:00:00 9.3 12 Sur 33 Sudeste 0 -- -- 92
2019-05-26 22:00:00 9.7 18 Sudeste 44 Sudeste 0 -- -- 91
2019-05-26 21:00:00 11.1 21 Sur 41 Sudeste 0 -- -- 86
2019-05-26 20:00:00 13 20 Sur 40 Sudeste 0 -- -- 78
2019-05-26 19:00:00 15.4 22 Sudeste 39 Sudeste 0 -- -- 71
2019-05-26 18:00:00 16.6 19 Sudeste 40 Sudeste 0 -- -- 67
2019-05-26 17:00:00 17.6 16 Sudeste 30 Sur 0 -- -- 65
2019-05-26 16:00:00 17.9 17 Sudeste 31 Sur 0 -- -- 62
2019-05-26 15:00:00 16.8 17 Sudeste 30 Sur 0 -- -- 67
2019-05-26 14:00:00 16 18 Sudeste 30 Sudeste 0 -- -- 68
2019-05-26 13:00:00 15.3 16 Sudeste 31 Sudeste 0 -- -- 70
2019-05-26 12:00:00 14.8 13 Sur 22 Sur 0 -- -- 72
2019-05-26 11:00:00 13.6 9 Sur 19 Sudoeste 0 -- -- 70
2019-05-26 10:00:00 12.3 5 Sur 14 Sur 0 -- -- 77
2019-05-26 09:00:00 9.4 2 Sudeste 11 Este 0 -- -- 90
2019-05-26 08:00:00 5.2 5 Este 13 Este 0 -- -- 97
2019-05-26 07:00:00 4.4 0 Calma 10 Este 0 -- -- 94
2019-05-26 06:00:00 5.9 0 Calma 6 Este 0 -- -- 93
2019-05-26 05:00:00 7.3 3 Sudoeste 12 Sudoeste 0 -- -- 93
2019-05-26 04:00:00 7.6 6 Sur 17 Sudeste 0 -- -- 94
2019-05-26 03:00:00 7.4 5 Sudeste 23 Sur 0 -- -- 92
2019-05-26 02:00:00 7.6 11 Sur 21 Sur 0 -- -- 91
2019-05-26 01:00:00 7.8 10 Sudeste 24 Sudeste 0 -- -- 90
2019-05-26 00:00:00 7.9 10 Sudeste 30 Sudeste 0 -- -- 87
2019-05-25 23:00:00 8.2 12 Sudeste 26 Sudeste 0 -- -- 87
2019-05-25 22:00:00 8.8 15 Sur 35 Sudeste 0 -- -- 84
2019-05-25 21:00:00 10.3 17 Sudeste 33 Sur 0 -- -- 77
2019-05-25 20:00:00 11.9 17 Sudeste 37 Sudeste 0 -- -- 72
2019-05-25 19:00:00 13.8 15 Sur 36 Sur 0 -- -- 66
2019-05-25 18:00:00 14.5 18 Sur 41 Sur 0 -- -- 63
2019-05-25 17:00:00 15.1 24 Sudeste 44 Sur 0 -- -- 63
2019-05-25 16:00:00 15.6 19 Sudeste 41 Sur 0 -- -- 61
2019-05-25 15:00:00 15.3 17 Sudeste 49 Sur 0 -- -- 60
2019-05-25 14:00:00 14.5 23 Sudeste 45 Sur 0 -- -- 62
2019-05-25 13:00:00 13.8 22 Sur 48 Sudeste 0 -- -- 62
2019-05-25 12:00:00 14 18 Sudeste 34 Sudeste 0 -- -- 60
2019-05-25 11:00:00 13.4 15 Sudeste 27 Este 0 -- -- 62
2019-05-25 10:00:00 11.9 9 Sudeste 28 Sur 0 -- -- 64
2019-05-25 09:00:00 10.8 5 Sudeste 15 Sur 0 -- -- 66
2019-05-25 08:00:00 7.4 8 Sudeste 14 Sur 0 -- -- 82
2019-05-25 07:00:00 6.2 2 Noroeste 12 Sudoeste 0 -- -- 91
2019-05-25 06:00:00 6 3 Nordeste 14 Este 0 -- -- 91
2019-05-25 05:00:00 7.5 4 Nordeste 9 Sudeste 0 -- -- 89
2019-05-25 04:00:00 7.5 5 Sudeste 12 Sudeste 0 -- -- 89
2019-05-25 03:00:00 8 12 Sudeste 21 Sur 0 -- -- 86
2019-05-25 02:00:00 8.1 11 Sur 22 Sudeste 0 -- -- 81
2019-05-25 01:00:00 8.2 14 Sur 25 Sur 0 -- -- 85
2019-05-25 00:00:00 8.7 13 Sur 22 Sur 0 -- -- 84
2019-05-24 23:00:00 8.9 9 Sudoeste 19 Sur 0 -- -- 83
2019-05-24 22:00:00 9.1 7 Sudeste 23 Este 0 -- -- 81
2019-05-24 21:00:00 10.9 5 Sudeste 28 Este 0 -- -- 73
2019-05-24 20:00:00 12 10 Sudeste 39 Sur 0 -- -- 70
2019-05-24 19:00:00 13.7 19 Sur 39 Sur 0 -- -- 62
2019-05-24 18:00:00 14.6 15 Sudeste 42 Sudeste 0 -- -- 57
2019-05-24 17:00:00 15.3 14 Sudeste 44 Sudeste 0 -- -- 59
2019-05-24 16:00:00 15.2 15 Sudeste 40 Sudeste 0 -- -- 58
2019-05-24 15:00:00 14.9 16 Sudeste 39 Sudeste 0 -- -- 58
2019-05-24 14:00:00 15.1 17 Sudeste 44 Sudeste 0 -- -- 60
2019-05-24 13:00:00 14.8 16 Sudeste 35 Sudeste 0 -- -- 56
2019-05-24 12:00:00 13.7 15 Sur 33 Sudeste 0 -- -- 61
2019-05-24 11:00:00 13.1 15 Sudeste 29 Sudeste 0 -- -- 63
2019-05-24 10:00:00 11.9 12 Sudeste 26 Sur 0 -- -- 68
2019-05-24 09:00:00 9.1 2 Sur 10 Este 0 -- -- 74
2019-05-24 08:00:00 5.7 4 Este 16 Sudeste 0 -- -- 87
2019-05-24 07:00:00 5.2 4 Sudeste 15 Sudeste 0 -- -- 84
2019-05-24 06:00:00 6.3 4 Este 11 Sudeste 0 -- -- 80
2019-05-24 05:00:00 8.1 6 Sudeste 24 Sudeste 0 -- -- 76
2019-05-24 04:00:00 9 13 Sur 22 Sur 0 -- -- 78
2019-05-24 03:00:00 9.5 13 Sur 24 Sur 0 -- -- 80
2019-05-24 02:00:00 9.8 10 Sur 22 Sudeste 0 -- -- 81
2019-05-24 01:00:00 10.1 13 Sur 23 Sur 0 -- -- 81
2019-05-24 00:00:00 10.1 14 Sur 24 Sudeste 0 -- -- 82
2019-05-23 23:00:00 10.1 11 Sur 24 Sur 0 -- -- 86
2019-05-23 22:00:00 10.8 10 Sudeste 27 Este 0 -- -- 87
2019-05-23 21:00:00 11.4 10 Sudeste 31 Sudeste 0 -- -- 85
2019-05-23 20:00:00 12.6 14 Sudeste 37 Sudeste 0 -- -- 82
2019-05-23 19:00:00 14.7 19 Sur 37 Sur 0 -- -- 76
2019-05-23 18:00:00 14.3 13 Sur 33 Sudeste 0 -- -- 79
2019-05-23 17:00:00 16.1 15 Sudeste 35 Sur 0 -- -- 69
2019-05-23 16:00:00 18.9 22 Sudeste 39 Sur 0 -- -- 60
2019-05-23 15:00:00 18.1 12 Sudeste 28 Sudeste 0 -- -- 65
2019-05-23 14:00:00 19.7 5 Sur 13 Oeste 0 -- -- 53
2019-05-23 13:00:00 18.9 3 Sudoeste 10 Oeste 0 -- -- 58
2019-05-23 12:00:00 17.6 3 Sudoeste 9 Noroeste 0 -- -- 56
2019-05-23 11:00:00 15.7 4 Noroeste 10 Norte 0 -- -- 67
2019-05-23 10:00:00 13.3 5 Noroeste 9 Noroeste 0 -- -- 79
2019-05-23 09:00:00 10.8 4 Sudeste 6 Este 0 -- -- 88
2019-05-23 08:00:00 7.1 3 Nordeste 11 Este 0 -- -- 95
2019-05-23 07:00:00 6.6 2 Este 13 Este 0 -- -- 94
2019-05-23 06:00:00 7.3 9 Este 15 Este 0 -- -- 95
2019-05-23 05:00:00 7.8 0 Calma 14 Este 0 -- -- 90
2019-05-23 04:00:00 8.9 7 Este 14 Este 0 -- -- 92
2019-05-23 03:00:00 9.6 6 Este 13 Este 0 -- -- 89
2019-05-23 02:00:00 11 5 Este 11 Este 0 -- -- 85
2019-05-23 01:00:00 12 2 Noroeste 11 Sur 0 -- -- 83
2019-05-23 00:00:00 13.1 6 Sur 15 Sudeste 0 -- -- 80
2019-05-22 23:00:00 13.8 7 Sudeste 19 Sudeste 0 -- -- 80
2019-05-22 22:00:00 15.5 8 Sur 20 Sur 0 -- -- 75
2019-05-22 21:00:00 17.4 13 Sudeste 30 Sur 0 -- -- 69
2019-05-22 20:00:00 19.5 14 Sur 26 Sudeste 0 -- -- 59
2019-05-22 19:00:00 20.3 16 Sur 31 Sur 0 -- -- 53
2019-05-22 18:00:00 23.3 6 Sudeste 26 Sudoeste 0 -- -- 41
2019-05-22 17:00:00 24.1 8 Noroeste 31 Norte 0 -- -- 38
2019-05-22 16:00:00 23.2 7 Norte 40 Noroeste 0 -- -- 38
2019-05-22 15:00:00 22.1 9 Sudoeste 20 Norte 0 -- -- 38
2019-05-22 14:00:00 20.9 7 Norte 17 Norte 0 -- -- 46
2019-05-22 13:00:00 18.5 5 Norte 13 Norte 0 -- -- 48
2019-05-22 12:00:00 15.9 4 Sudoeste 9 Sudeste 0 -- -- 49
2019-05-22 11:00:00 13.4 3 Sudeste 10 Sur 0 -- -- 58
2019-05-22 10:00:00 11.2 3 Sudoeste 7 Sur 0 -- -- 67
2019-05-22 09:00:00 7.4 0 Calma 8 Este 0 -- -- 87
2019-05-22 08:00:00 3.5 6 Este 12 Este 0 -- -- 97
2019-05-22 07:00:00 2.6 3 Nordeste 13 Este 0 -- -- 95
2019-05-22 06:00:00 3 9 Este 15 Este 0 -- -- 95
2019-05-22 05:00:00 3.5 0 Calma 10 Este 0 -- -- 93
2019-05-22 04:00:00 4.7 5 Este 14 Este 0 -- -- 94
2019-05-22 03:00:00 5.4 8 Este 11 Sudeste 0 -- -- 93
2019-05-22 02:00:00 6.4 0 Calma 8 Sudeste 0 -- -- 89
2019-05-22 01:00:00 8 4 Sur 15 Sur 0 -- -- 86
2019-05-22 00:00:00 8.7 8 Sudeste 16 Sur 0 -- -- 87
2019-05-21 23:00:00 9.9 12 Sur 23 Sur 0 -- -- 86
2019-05-21 22:00:00 10.7 12 Sudeste 24 Este 0 -- -- 81
2019-05-21 21:00:00 12.4 12 Sur 27 Sudeste 0 -- -- 76
2019-05-21 20:00:00 14.5 11 Sudeste 31 Sur 0 -- -- 72
2019-05-21 19:00:00 16.1 13 Sudeste 36 Sur 0 -- -- 66
2019-05-21 18:00:00 17.9 14 Sudeste 32 Sudeste 0 -- -- 57
2019-05-21 17:00:00 18.3 13 Sudeste 33 Sur 0 -- -- 53
2019-05-21 16:00:00 18.2 13 Sudeste 28 Sur 0 -- -- 55
2019-05-21 15:00:00 18.1 13 Sur 27 Sur 0 -- -- 53
2019-05-21 14:00:00 17.3 11 Sur 20 Sudoeste 0 -- -- 51
2019-05-21 13:00:00 16 6 Sur 17 Sur 0 -- -- 56
2019-05-21 12:00:00 14.3 8 Sur 15 Sudeste 0 -- -- 59
2019-05-21 11:00:00 12.5 8 Sur 17 Sur 0 -- -- 64
2019-05-21 10:00:00 10.5 6 Sur 13 Sur 0 -- -- 68
2019-05-21 09:00:00 7 3 Sudeste 10 Este 0 -- -- 86
2019-05-21 08:00:00 3.4 3 Este 12 Sudeste 0 -- -- 98
2019-05-21 07:00:00 2.3 5 Este 9 Este 0 -- -- 97
2019-05-21 06:00:00 2.5 0 Calma 18 Este 0 -- -- 96
2019-05-21 05:00:00 3 5 Este 14 Este 0 -- -- 96
2019-05-21 04:00:00 3.5 4 Este 10 Este 0 -- -- 94
2019-05-21 03:00:00 5.1 6 Este 11 Sudeste 0 -- -- 92
2019-05-21 02:00:00 6 4 Sudeste 14 Sur 0 -- -- 94
2019-05-21 01:00:00 6.4 6 Sudeste 15 Sudeste 0 -- -- 93
2019-05-21 00:00:00 7.1 6 Sudeste 19 Sudeste 0 -- -- 92